Time;durP1;ratioP1;P1;durP2;ratioP2;P2;SDS_P1;SDS_P2;PMS_P1;PMS_P2;Temp;Humidity;BMP_temperature;BMP_pressure;BME280_temperature;BME280_humidity;BME280_pressure;Samples;Min_cycle;Max_cycle;Signal;HPM_P1;HPM_P2
2023/05/12 00:00:55;;;;;;;3.47;2.00;;;13.20;99.90;;;;;;5112605;28;20448;-73
2023/05/12 00:03:22;;;;;;;2.70;1.53;;;13.20;99.90;;;;;;5113393;28;20436;-72
2023/05/12 00:05:51;;;;;;;2.90;1.80;;;13.20;99.90;;;;;;5112555;28;20439;-73
2023/05/12 00:08:18;;;;;;;3.93;2.00;;;13.20;99.90;;;;;;5113252;28;20455;-73
2023/05/12 00:10:45;;;;;;;2.50;2.03;;;13.10;99.90;;;;;;5112984;28;20443;-73
2023/05/12 00:13:12;;;;;;;3.40;2.13;;;13.10;99.90;;;;;;5112918;28;21021;-73
2023/05/12 00:15:38;;;;;;;3.13;1.80;;;13.10;99.90;;;;;;5112349;28;20946;-73
2023/05/12 00:18:05;;;;;;;3.57;1.97;;;13.10;99.90;;;;;;5113609;28;20483;-73
2023/05/12 00:20:32;;;;;;;3.53;2.07;;;13.20;99.90;;;;;;5113101;28;20451;-72
2023/05/12 00:23:00;;;;;;;3.80;2.07;;;13.10;99.90;;;;;;5112489;28;20927;-73
2023/05/12 00:25:27;;;;;;;3.53;1.80;;;13.10;99.90;;;;;;5112968;28;20436;-73
2023/05/12 00:27:54;;;;;;;3.67;2.30;;;13.10;99.90;;;;;;5112750;28;20448;-73
2023/05/12 00:30:21;;;;;;;3.63;2.30;;;13.10;99.90;;;;;;5113208;28;20451;-73
2023/05/12 00:32:48;;;;;;;2.30;1.60;;;13.10;99.90;;;;;;5112699;28;20448;-74
2023/05/12 00:35:15;;;;;;;2.97;1.80;;;13.10;99.90;;;;;;5112639;28;20444;-73
2023/05/12 00:37:41;;;;;;;3.17;2.10;;;13.10;99.90;;;;;;5112373;28;20884;-73
2023/05/12 00:40:10;;;;;;;3.60;2.43;;;13.10;99.90;;;;;;5112736;28;20455;-73
2023/05/12 00:42:37;;;;;;;2.73;1.83;;;13.10;99.90;;;;;;5112961;28;20442;-70
2023/05/12 00:45:06;;;;;;;3.10;1.90;;;13.10;99.90;;;;;;5111915;28;20448;-74
2023/05/12 00:47:33;;;;;;;3.80;2.53;;;13.00;99.90;;;;;;5113264;28;20455;-73
2023/05/12 00:50:00;;;;;;;3.17;2.10;;;13.10;99.90;;;;;;5109549;28;20528;-72
2023/05/12 00:52:27;;;;;;;3.00;1.90;;;13.00;99.90;;;;;;5113086;28;20452;-72
2023/05/12 00:54:54;;;;;;;3.70;2.50;;;13.00;99.90;;;;;;5109013;28;20444;-72
2023/05/12 00:57:25;;;;;;;5.13;2.73;;;13.00;99.90;;;;;;5112731;28;20482;-73
2023/05/12 00:59:52;;;;;;;3.30;2.57;;;13.00;99.90;;;;;;5111460;28;20446;-73
2023/05/12 01:02:18;;;;;;;3.73;2.17;;;13.00;99.90;;;;;;5112575;28;20443;-73
2023/05/12 01:04:45;;;;;;;4.43;2.90;;;13.10;99.90;;;;;;5108365;28;20445;-73
2023/05/12 01:07:18;;;;;;;5.80;2.80;;;13.10;99.90;;;;;;5102392;28;20458;-73
2023/05/12 01:09:44;;;;;;;4.00;2.47;;;13.00;99.90;;;;;;5111649;28;21013;-75
2023/05/12 01:12:11;;;;;;;3.60;2.97;;;13.10;99.90;;;;;;5112490;28;20443;-72
2023/05/12 01:14:40;;;;;;;5.70;3.20;;;13.00;99.90;;;;;;5111327;28;20443;-72
2023/05/12 01:17:11;;;;;;;4.93;3.53;;;13.10;99.90;;;;;;5112150;28;20451;-74
2023/05/12 01:19:41;;;;;;;7.50;2.83;;;13.10;99.90;;;;;;5111598;28;20884;-72
2023/05/12 01:22:08;;;;;;;3.30;2.30;;;13.00;99.90;;;;;;5111797;28;20452;-74
2023/05/12 01:24:42;;;;;;;4.43;2.50;;;13.00;99.90;;;;;;5111550;28;20801;-73
2023/05/12 01:27:11;;;;;;;4.20;2.87;;;13.00;99.90;;;;;;5111519;28;20440;-73
2023/05/12 01:29:39;;;;;;;4.23;2.60;;;13.00;99.90;;;;;;5111640;28;20466;-72
2023/05/12 01:32:06;;;;;;;4.80;3.13;;;13.10;99.90;;;;;;5111655;28;20440;-73
2023/05/12 01:34:34;;;;;;;5.07;2.50;;;13.10;99.90;;;;;;5111690;28;20852;-72
2023/05/12 01:37:01;;;;;;;4.73;3.17;;;12.90;99.90;;;;;;5105842;28;20440;-74
2023/05/12 01:39:28;;;;;;;4.70;3.07;;;13.00;99.90;;;;;;5111862;28;20578;-74
2023/05/12 01:41:55;;;;;;;4.03;2.70;;;13.00;99.90;;;;;;5111163;28;20462;-75
2023/05/12 01:44:23;;;;;;;3.67;2.17;;;13.00;99.90;;;;;;5111623;28;20873;-73
2023/05/12 01:46:50;;;;;;;4.00;2.77;;;13.00;99.90;;;;;;5110874;28;20439;-72
2023/05/12 01:49:16;;;;;;;3.43;2.57;;;13.10;99.90;;;;;;5111675;28;20448;-73
2023/05/12 01:51:43;;;;;;;4.73;2.60;;;13.00;99.90;;;;;;5110663;28;20543;-74
2023/05/12 01:54:10;;;;;;;3.40;2.73;;;12.90;99.90;;;;;;5111401;28;20451;-74
2023/05/12 01:56:37;;;;;;;4.70;3.23;;;13.00;99.90;;;;;;5111293;28;20454;-73
2023/05/12 01:59:03;;;;;;;4.17;2.80;;;12.90;99.90;;;;;;5111334;28;20481;-74
2023/05/12 02:01:31;;;;;;;3.40;2.60;;;13.00;99.90;;;;;;5111175;28;20452;-73
2023/05/12 02:03:58;;;;;;;6.70;2.50;;;13.00;99.90;;;;;;5109892;28;20440;-73
2023/05/12 02:06:26;;;;;;;4.40;2.60;;;13.00;99.90;;;;;;5111215;28;20486;-73
2023/05/12 02:08:52;;;;;;;4.57;3.00;;;13.10;99.90;;;;;;5110205;28;20829;-74
2023/05/12 02:11:19;;;;;;;3.63;3.03;;;13.00;99.90;;;;;;5111013;28;20447;-74
2023/05/12 02:13:46;;;;;;;3.93;2.63;;;13.00;99.90;;;;;;5110203;28;20448;-74
2023/05/12 02:16:13;;;;;;;3.93;2.97;;;13.00;99.90;;;;;;5111134;28;20455;-74
2023/05/12 02:18:41;;;;;;;6.30;3.03;;;13.00;99.90;;;;;;5110726;28;20486;-70
2023/05/12 02:21:08;;;;;;;4.30;2.77;;;12.90;99.90;;;;;;5110804;28;20539;-73
2023/05/12 02:23:35;;;;;;;4.20;2.70;;;13.00;99.90;;;;;;5110309;28;20448;-73
2023/05/12 02:26:01;;;;;;;4.57;3.07;;;12.90;99.90;;;;;;5110322;28;20713;-73
2023/05/12 02:28:28;;;;;;;4.07;2.80;;;12.90;99.90;;;;;;5110955;28;20500;-73
2023/05/12 02:30:55;;;;;;;4.57;2.83;;;12.80;99.90;;;;;;5110084;28;20447;-74
2023/05/12 02:33:23;;;;;;;4.63;3.60;;;12.90;99.90;;;;;;5110429;28;20443;-74
2023/05/12 02:35:51;;;;;;;4.47;3.40;;;12.80;99.90;;;;;;5110409;28;20813;-74
2023/05/12 02:38:18;;;;;;;4.87;3.80;;;12.80;99.90;;;;;;5114836;28;20505;-73
2023/05/12 02:40:46;;;;;;;4.90;2.70;;;12.90;99.90;;;;;;5114665;28;20452;-73
2023/05/12 02:43:13;;;;;;;4.83;2.97;;;12.80;99.90;;;;;;5114752;28;21046;-73
2023/05/12 02:45:40;;;;;;;5.67;2.73;;;12.80;99.90;;;;;;5113207;28;20450;-74
2023/05/12 02:48:07;;;;;;;4.70;3.37;;;12.70;99.90;;;;;;5115356;28;20448;-73
2023/05/12 02:50:33;;;;;;;5.37;3.47;;;12.70;99.90;;;;;;5115299;28;20444;-73
2023/05/12 02:53:02;;;;;;;4.40;2.93;;;12.70;99.90;;;;;;5114437;28;20447;-73
2023/05/12 02:55:29;;;;;;;5.73;3.70;;;12.80;99.90;;;;;;5114925;28;20481;-74
2023/05/12 02:57:56;;;;;;;4.27;2.90;;;12.80;99.90;;;;;;5114443;28;20444;-73
2023/05/12 03:00:23;;;;;;;6.10;3.27;;;12.90;99.90;;;;;;5114807;28;20444;-74
2023/05/12 03:02:49;;;;;;;5.73;3.00;;;12.80;99.90;;;;;;5114436;28;20478;-73
2023/05/12 03:05:16;;;;;;;4.80;2.70;;;12.90;99.90;;;;;;5114640;28;20447;-75
2023/05/12 03:07:43;;;;;;;6.20;4.33;;;12.80;99.90;;;;;;5114415;28;20817;-75
2023/05/12 03:10:11;;;;;;;6.07;3.17;;;12.80;99.90;;;;;;5114520;28;20560;-75
2023/05/12 03:12:38;;;;;;;4.33;2.93;;;12.80;99.90;;;;;;5114129;28;20444;-74
2023/05/12 03:15:05;;;;;;;4.70;3.13;;;12.80;99.90;;;;;;5114680;28;20454;-76
2023/05/12 03:17:32;;;;;;;5.83;4.10;;;12.70;99.90;;;;;;5078301;28;20448;-75
2023/05/12 03:19:59;;;;;;;5.13;3.70;;;12.70;99.90;;;;;;5114193;28;20486;-75
2023/05/12 03:22:26;;;;;;;5.00;3.27;;;12.70;99.90;;;;;;5114540;28;20446;-74
2023/05/12 03:24:53;;;;;;;4.40;3.40;;;12.80;99.90;;;;;;5113260;28;21039;-76
2023/05/12 03:27:21;;;;;;;5.40;4.13;;;12.80;99.90;;;;;;5114402;28;20474;-75
2023/05/12 03:29:48;;;;;;;6.10;3.13;;;12.70;99.90;;;;;;5113499;28;20451;-76
2023/05/12 03:32:15;;;;;;;4.50;3.40;;;12.70;99.90;;;;;;5114220;28;20459;-75
2023/05/12 03:34:42;;;;;;;4.30;3.17;;;12.70;99.90;;;;;;5113370;28;20447;-74
2023/05/12 03:37:09;;;;;;;3.80;2.97;;;12.70;99.90;;;;;;5114160;28;20454;-75
2023/05/12 03:39:36;;;;;;;6.00;3.60;;;12.60;99.90;;;;;;5114479;28;20528;-75
2023/05/12 03:42:03;;;;;;;3.93;2.97;;;12.60;99.90;;;;;;5113962;28;20535;-75
2023/05/12 03:44:31;;;;;;;7.20;4.40;;;12.60;99.90;;;;;;5114112;28;20474;-75
2023/05/12 03:46:58;;;;;;;5.63;3.40;;;12.60;99.90;;;;;;5113288;28;20440;-75
2023/05/12 03:49:24;;;;;;;4.50;3.20;;;12.70;99.90;;;;;;5104099;28;20448;-75
2023/05/12 03:51:51;;;;;;;6.33;3.87;;;12.70;99.90;;;;;;5113227;28;20444;-75
2023/05/12 03:54:18;;;;;;;5.70;4.17;;;12.70;99.90;;;;;;5113560;28;20454;-75
2023/05/12 03:56:45;;;;;;;4.80;3.57;;;12.60;99.90;;;;;;5112777;28;20458;-75
2023/05/12 03:59:11;;;;;;;5.97;3.97;;;12.70;99.90;;;;;;5113731;28;21001;-75
2023/05/12 04:01:40;;;;;;;5.43;3.50;;;12.60;99.90;;;;;;5113032;28;20450;-75
2023/05/12 04:04:06;;;;;;;6.47;3.47;;;12.60;99.90;;;;;;5113632;28;20440;-75
2023/05/12 04:06:33;;;;;;;7.67;4.83;;;12.60;99.90;;;;;;5113312;28;20443;-75
2023/05/12 04:09:00;;;;;;;5.20;4.00;;;12.60;99.90;;;;;;5112751;28;20586;-75
2023/05/12 04:11:27;;;;;;;7.67;4.90;;;12.60;99.90;;;;;;5113658;28;20563;-76
2023/05/12 04:13:54;;;;;;;6.67;4.17;;;12.60;99.90;;;;;;5112362;28;20521;-76
2023/05/12 04:16:21;;;;;;;6.53;3.87;;;12.50;99.90;;;;;;5113242;28;20503;-76
2023/05/12 04:18:49;;;;;;;6.13;4.00;;;12.50;99.90;;;;;;5112490;28;20471;-75
2023/05/12 04:21:16;;;;;;;6.80;3.90;;;12.60;99.90;;;;;;5113386;28;20444;-75
2023/05/12 04:23:43;;;;;;;4.73;3.03;;;12.60;99.90;;;;;;5111971;28;20448;-76
2023/05/12 04:26:09;;;;;;;6.57;3.87;;;12.60;99.90;;;;;;5112781;28;20802;-75
2023/05/12 04:28:36;;;;;;;5.57;3.40;;;12.50;99.90;;;;;;5113486;28;20807;-75
2023/05/12 04:31:04;;;;;;;7.73;4.07;;;12.60;99.90;;;;;;5112328;28;20492;-75
2023/05/12 04:33:31;;;;;;;5.60;3.43;;;12.60;99.90;;;;;;5112691;28;20448;-75
2023/05/12 04:35:59;;;;;;;4.07;2.90;;;12.60;99.90;;;;;;5112000;28;21084;-75
2023/05/12 04:38:26;;;;;;;5.40;3.80;;;12.50;99.90;;;;;;5112624;28;20494;-75
2023/05/12 04:40:58;;;;;;;4.50;3.17;;;12.50;99.90;;;;;;5111690;28;20447;-73
2023/05/12 04:43:25;;;;;;;4.53;3.67;;;12.60;99.90;;;;;;5109903;28;20435;-77
2023/05/12 04:45:53;;;;;;;5.23;3.63;;;12.50;99.90;;;;;;5111277;28;20965;-75
2023/05/12 04:48:19;;;;;;;6.13;4.03;;;12.50;99.90;;;;;;5111246;28;20943;-75
2023/05/12 04:50:47;;;;;;;4.60;3.03;;;12.50;99.90;;;;;;5107052;28;20895;-74
2023/05/12 04:53:15;;;;;;;7.30;4.20;;;12.60;99.90;;;;;;5111999;28;20444;-74
2023/05/12 04:55:44;;;;;;;4.83;3.33;;;12.60;99.90;;;;;;5112260;28;20810;-75
2023/05/12 04:58:12;;;;;;;6.33;3.70;;;12.50;99.90;;;;;;5112314;28;20543;-74
2023/05/12 05:00:39;;;;;;;5.30;3.70;;;12.50;99.90;;;;;;5110765;28;20486;-73
2023/05/12 05:03:06;;;;;;;4.93;3.77;;;12.70;99.90;;;;;;5112185;28;20451;-74
2023/05/12 05:05:33;;;;;;;5.73;3.90;;;12.80;99.90;;;;;;5112651;28;20826;-74
2023/05/12 05:08:00;;;;;;;6.57;3.30;;;12.70;99.90;;;;;;5111380;28;20448;-72
2023/05/12 05:10:28;;;;;;;9.60;4.43;;;12.80;99.90;;;;;;5101055;28;20497;-75
2023/05/12 05:12:55;;;;;;;4.53;2.80;;;12.70;99.90;;;;;;5110019;28;20547;-71
2023/05/12 05:15:22;;;;;;;4.53;2.93;;;12.70;99.90;;;;;;5111483;28;20448;-70
2023/05/12 05:17:49;;;;;;;4.40;3.60;;;12.70;99.90;;;;;;5111045;28;20448;-78
2023/05/12 05:20:16;;;;;;;6.80;3.70;;;12.70;99.90;;;;;;5110891;28;20536;-79
2023/05/12 05:22:43;;;;;;;7.40;4.10;;;12.80;99.90;;;;;;5111598;28;20449;-79
2023/05/12 05:25:10;;;;;;;6.13;3.63;;;12.80;99.90;;;;;;5110202;28;20923;-80
2023/05/12 05:27:38;;;;;;;5.70;3.83;;;12.80;99.90;;;;;;5111711;28;20454;-78
2023/05/12 05:30:07;;;;;;;7.43;3.83;;;12.80;99.90;;;;;;5111305;28;20443;-80
2023/05/12 05:32:35;;;;;;;5.90;3.37;;;12.90;99.90;;;;;;5093662;28;20444;-77
2023/05/12 05:35:02;;;;;;;4.47;2.73;;;12.90;99.90;;;;;;5110923;28;20493;-77
2023/05/12 05:37:29;;;;;;;7.60;3.97;;;12.90;99.90;;;;;;5111836;28;20501;-77
2023/05/12 05:39:56;;;;;;;5.90;3.43;;;12.90;99.90;;;;;;5110665;28;20478;-78
2023/05/12 05:42:23;;;;;;;4.47;2.90;;;13.00;99.90;;;;;;5111855;28;20802;-78
2023/05/12 05:44:51;;;;;;;6.10;3.77;;;12.90;99.90;;;;;;5110760;28;20447;-75
2023/05/12 05:47:17;;;;;;;6.67;4.47;;;12.90;99.90;;;;;;5110680;28;20452;-72
2023/05/12 05:49:44;;;;;;;5.40;3.53;;;12.70;99.90;;;;;;5105901;28;20816;-72
2023/05/12 05:52:11;;;;;;;5.90;4.23;;;12.70;99.90;;;;;;5111253;28;20448;-72
2023/05/12 05:54:38;;;;;;;6.50;3.97;;;12.80;99.90;;;;;;5110467;28;20447;-70
2023/05/12 05:57:05;;;;;;;5.20;4.50;;;12.90;99.90;;;;;;5109904;28;20455;-71
2023/05/12 05:59:32;;;;;;;5.80;4.30;;;13.00;99.90;;;;;;5111429;28;20471;-75
2023/05/12 06:02:00;;;;;;;4.77;3.43;;;13.00;99.90;;;;;;5110154;28;20462;-75
2023/05/12 06:04:27;;;;;;;6.87;3.93;;;13.10;99.90;;;;;;5110939;28;20448;-77
2023/05/12 06:06:53;;;;;;;5.93;3.50;;;13.20;99.90;;;;;;5110319;28;20447;-77
2023/05/12 06:09:20;;;;;;;6.90;3.60;;;13.10;99.90;;;;;;5111094;28;20493;-72
2023/05/12 06:11:47;;;;;;;6.43;3.63;;;13.10;99.90;;;;;;5110093;28;20791;-78
2023/05/12 06:14:14;;;;;;;8.03;4.90;;;13.20;99.90;;;;;;5109209;28;20452;-72
2023/05/12 06:16:41;;;;;;;5.40;3.67;;;13.10;99.90;;;;;;5110035;28;20459;-70
2023/05/12 06:19:10;;;;;;;5.87;3.87;;;13.20;99.90;;;;;;5110715;28;20475;-72
2023/05/12 06:21:37;;;;;;;4.87;3.27;;;13.20;99.90;;;;;;5111296;28;20787;-71
2023/05/12 06:24:04;;;;;;;4.90;3.53;;;13.30;99.90;;;;;;5110559;28;20455;-72
2023/05/12 06:26:31;;;;;;;5.40;2.97;;;13.30;99.90;;;;;;5110918;28;20781;-71
2023/05/12 06:28:58;;;;;;;7.87;4.10;;;13.40;99.90;;;;;;5109923;28;20758;-72
2023/05/12 06:31:24;;;;;;;5.83;3.17;;;13.30;99.90;;;;;;5110802;28;20447;-72
2023/05/12 06:33:51;;;;;;;6.53;3.03;;;13.30;99.90;;;;;;5110059;28;20444;-72
2023/05/12 06:36:19;;;;;;;6.30;3.53;;;13.30;99.90;;;;;;5111182;28;20446;-71
2023/05/12 06:38:46;;;;;;;5.77;2.93;;;13.40;99.90;;;;;;5110592;28;20879;-72
2023/05/12 06:41:13;;;;;;;8.23;4.50;;;13.40;99.90;;;;;;5110744;28;20487;-76
2023/05/12 06:43:40;;;;;;;5.73;3.90;;;13.30;99.90;;;;;;5110798;28;20440;-69
2023/05/12 06:46:07;;;;;;;7.00;4.50;;;13.40;99.90;;;;;;5121133;28;20455;-74
2023/05/12 06:48:34;;;;;;;4.77;2.90;;;13.50;27.30;;;;;;5111271;28;20443;-74
2023/05/12 06:51:01;;;;;;;4.37;2.43;;;13.70;1.00;;;;;;5110406;28;20440;-72
2023/05/12 06:53:29;;;;;;;3.93;2.30;;;13.70;1.00;;;;;;5110610;28;20941;-79
2023/05/12 06:55:56;;;;;;;4.97;3.10;;;13.60;99.90;;;;;;5111610;28;20448;-81
2023/05/12 06:58:22;;;;;;;4.57;2.93;;;13.60;16.50;;;;;;5110926;28;20483;-74
2023/05/12 07:00:49;;;;;;;6.43;3.80;;;13.70;37.90;;;;;;5110277;28;20585;-73
2023/05/12 07:03:16;;;;;;;2.80;2.33;;;13.80;1.00;;;;;;5110573;28;20539;-74
2023/05/12 07:05:43;;;;;;;4.80;3.23;;;13.90;1.00;;;;;;5108351;28;20448;-72
2023/05/12 07:08:10;;;;;;;4.63;3.43;;;13.80;99.90;;;;;;5109853;28;20945;-72
2023/05/12 07:10:38;;;;;;;4.67;2.80;;;13.80;99.90;;;;;;5108270;28;20470;-72
2023/05/12 07:13:05;;;;;;;4.50;2.67;;;14.00;1.00;;;;;;5108795;28;20935;-71
2023/05/12 07:15:32;;;;;;;4.40;2.70;;;14.10;1.00;;;;;;5109741;28;20793;-72
2023/05/12 07:17:59;;;;;;;5.27;2.90;;;14.20;1.00;;;;;;5109086;28;20555;-71
2023/05/12 07:20:26;;;;;;;4.37;3.43;;;14.20;1.00;;;;;;5109457;28;20521;-72
2023/05/12 07:22:53;;;;;;;5.00;3.23;;;14.30;23.20;;;;;;5109147;28;20456;-72
2023/05/12 07:25:20;;;;;;;4.40;3.33;;;14.40;99.90;;;;;;5112416;28;20440;-71
2023/05/12 07:27:49;;;;;;;4.23;3.50;;;14.60;99.90;;;;;;5112806;28;20471;-72
2023/05/12 07:30:16;;;;;;;4.90;3.07;;;14.50;50.60;;;;;;5106981;28;20452;-72
2023/05/12 07:32:43;;;;;;;6.10;3.17;;;14.40;1.00;;;;;;5113537;28;20447;-72
2023/05/12 07:35:10;;;;;;;3.13;2.13;;;14.60;1.00;;;;;;5113086;28;20442;-72
2023/05/12 07:37:37;;;;;;;4.00;2.60;;;14.60;99.90;;;;;;5111278;28;20451;-73
2023/05/12 07:40:04;;;;;;;3.13;2.50;;;14.60;99.90;;;;;;5113079;28;20482;-72
2023/05/12 07:42:31;;;;;;;5.03;2.97;;;14.70;91.10;;;;;;5113601;28;20448;-72
2023/05/12 07:44:59;;;;;;;2.83;2.13;;;14.90;1.00;;;;;;5113411;28;20513;-73
2023/05/12 07:47:27;;;;;;;6.13;3.43;;;15.00;29.30;;;;;;5113046;28;20443;-72
2023/05/12 07:49:54;;;;;;;4.67;3.37;;;14.90;1.00;;;;;;5111763;28;20452;-73
2023/05/12 07:52:21;;;;;;;3.60;2.30;;;14.90;1.00;;;;;;5113211;28;20444;-68
2023/05/12 07:54:47;;;;;;;4.93;2.97;;;14.70;1.00;;;;;;5112874;28;20807;-71
2023/05/12 07:57:15;;;;;;;5.13;2.60;;;14.70;99.90;;;;;;5113341;28;20447;-74
2023/05/12 07:59:43;;;;;;;3.83;2.57;;;14.80;1.00;;;;;;5112743;28;20494;-73
2023/05/12 08:02:11;;;;;;;4.50;2.53;;;14.90;99.90;;;;;;5113330;28;20476;-72
2023/05/12 08:04:38;;;;;;;3.50;2.57;;;15.00;99.90;;;;;;5111843;28;20448;-71
2023/05/12 08:07:05;;;;;;;3.17;1.87;;;15.00;99.90;;;;;;5113178;28;20455;-72
2023/05/12 08:09:31;;;;;;;3.77;2.60;;;15.10;99.90;;;;;;5112137;28;20494;-72
2023/05/12 08:11:58;;;;;;;2.87;1.80;;;15.20;1.00;;;;;;5112701;28;20486;-72
2023/05/12 08:14:25;;;;;;;2.43;1.80;;;15.20;35.40;;;;;;5113546;28;20451;-72
2023/05/12 08:16:52;;;;;;;2.60;1.70;;;15.20;99.90;;;;;;5112675;28;20512;-76
2023/05/12 08:19:20;;;;;;;2.33;1.57;;;15.20;1.00;;;;;;5112879;28;20446;-72
2023/05/12 08:21:47;;;;;;;2.70;1.90;;;15.20;17.70;;;;;;5111622;28;20934;-72
2023/05/12 08:24:14;;;;;;;3.20;1.87;;;15.30;1.00;;;;;;5113203;28;20440;-72
2023/05/12 08:26:41;;;;;;;3.00;1.57;;;15.30;99.90;;;;;;5111276;28;20451;-72
2023/05/12 08:29:08;;;;;;;2.33;1.37;;;15.30;99.90;;;;;;5111875;28;20462;-72
2023/05/12 08:31:36;;;;;;;2.37;1.60;;;15.40;1.00;;;;;;5113171;28;20444;-72
2023/05/12 08:34:03;;;;;;;3.00;2.20;;;15.40;1.00;;;;;;5112785;28;20452;-72
2023/05/12 08:36:31;;;;;;;2.97;2.30;;;15.30;1.00;;;;;;5112813;28;20470;-73
2023/05/12 08:38:58;;;;;;;2.63;1.63;;;15.50;1.00;;;;;;5109599;28;20455;-72
2023/05/12 08:41:36;;;;;;;2.40;1.53;;;15.60;99.90;;;;;;5112576;28;20475;-71
2023/05/12 08:44:05;;;;;;;3.23;1.90;;;15.80;99.90;;;;;;5110585;28;20436;-72
2023/05/12 08:46:32;;;;;;;2.47;1.70;;;;;;;;;;5111601;28;20548;-69
2023/05/12 08:49:01;;;;;;;2.93;1.67;;;;;;;;;;5111304;28;20492;-71
2023/05/12 08:51:29;;;;;;;2.63;1.70;;;;;;;;;;5112350;28;20451;-72
2023/05/12 08:53:58;;;;;;;3.27;1.77;;;;;;;;;;5104733;28;20445;-72
2023/05/12 08:56:25;;;;;;;2.30;1.60;;;;;;;;;;5112604;28;20769;-71
2023/05/12 08:58:54;;;;;;;3.73;2.27;;;;;;;;;;5111787;28;20934;-71
2023/05/12 09:01:21;;;;;;;2.70;1.80;;;;;;;;;;5111613;28;20483;-71
2023/05/12 09:03:48;;;;;;;3.23;1.80;;;;;;;;;;5111010;28;20456;-71
2023/05/12 09:06:16;;;;;;;3.07;1.80;;;;;;;;;;5108669;28;20939;-71
2023/05/12 09:08:43;;;;;;;2.57;1.70;;;;;;;;;;5109672;28;20494;-71
2023/05/12 09:11:12;;;;;;;3.40;1.93;;;;;;;;;;5111276;28;20436;-72
2023/05/12 09:13:46;;;;;;;2.37;1.47;;;;;;;;;;5111393;28;20443;-70
2023/05/12 09:16:14;;;;;;;2.77;1.73;;;;;;;;;;5109239;28;20432;-71
2023/05/12 09:18:46;;;;;;;3.63;2.40;;;;;;;;;;5110938;28;20506;-71
2023/05/12 09:21:14;;;;;;;3.40;2.53;;;;;;;;;;5111502;28;20482;-75
2023/05/12 09:23:41;;;;;;;2.77;1.70;;;;;;;;;;5111496;28;20443;-76
2023/05/12 09:26:08;;;;;;;2.50;1.77;;;;;;;;;;5111449;28;20961;-71
2023/05/12 09:28:37;;;;;;;6.17;5.10;;;;;;;;;;5111792;27;20535;-73
2023/05/12 09:31:14;;;;;;;4.20;2.17;;;;;;;;;;5109821;28;20447;-76
2023/05/12 09:33:41;;;;;;;2.47;1.37;;;;;;;;;;5111012;28;20799;-73
2023/05/12 09:36:09;;;;;;;2.83;2.00;;;;;;;;;;5111811;28;20451;-73
2023/05/12 09:38:36;;;;;;;3.77;1.50;;;;;;;;;;5111567;28;20455;-72
2023/05/12 09:41:03;;;;;;;2.50;1.20;;;;;;;;;;5109329;28;20812;-72
2023/05/12 09:43:30;;;;;;;2.03;1.50;;;;;;;;;;5111776;28;20447;-73
2023/05/12 09:46:04;;;;;;;1.80;1.30;;;;;;;;;;5110625;28;20729;-73
2023/05/12 09:48:32;;;;;;;2.60;1.60;;;;;;;;;;5110620;28;20444;-72
2023/05/12 09:50:59;;;;;;;2.37;1.70;;;;;;;;;;5110094;28;20999;-72
2023/05/12 09:53:26;;;;;;;2.60;2.27;;;;;;;;;;5111478;28;20943;-73
2023/05/12 09:55:53;;;;;;;2.73;1.67;;;;;;;;;;5110429;28;20436;-72
2023/05/12 09:58:20;;;;;;;3.77;1.87;;;;;;;;;;5111583;28;20452;-73
2023/05/12 10:00:48;;;;;;;2.63;2.13;;;;;;;;;;5108935;28;20661;-72
2023/05/12 10:03:17;;;;;;;3.20;2.17;;;;;;;;;;5108543;28;20550;-72
2023/05/12 10:05:47;;;;;;;1.90;1.20;;;;;;;;;;5110593;28;20439;-72
2023/05/12 10:08:16;;;;;;;2.93;1.67;;;;;;;;;;5110942;28;20923;-73
2023/05/12 10:10:47;;;;;;;2.83;1.90;;;;;;;;;;5110650;28;20444;-72
2023/05/12 10:13:14;;;;;;;1.50;1.30;;;;;;;;;;5111664;28;20440;-72
2023/05/12 10:15:41;;;;;;;4.20;2.57;;;;;;;;;;5110994;28;20509;-72
2023/05/12 10:18:09;;;;;;;2.40;1.60;;;;;;;;;;5109788;28;20447;-72
2023/05/12 10:20:38;;;;;;;2.07;1.47;;;;;;;;;;5110329;28;20475;-73
2023/05/12 10:23:06;;;;;;;3.10;1.73;;;;;;;;;;5111018;28;20445;-74
2023/05/12 10:25:33;;;;;;;1.80;1.20;;;;;;;;;;5111169;28;20451;-73
2023/05/12 10:28:02;;;;;;;2.23;1.20;;;;;;;;;;5110532;28;20846;-74
2023/05/12 10:30:30;;;;;;;2.30;1.40;;;;;;;;;;5110641;28;20538;-74
2023/05/12 10:32:57;;;;;;;3.50;1.60;;;;;;;;;;5110462;28;20822;-75
2023/05/12 10:35:32;;;;;;;1.73;1.27;;;;;;;;;;5111276;28;20551;-74
2023/05/12 10:38:03;;;;;;;1.70;1.10;;;;;;;;;;5107955;28;20565;-73
2023/05/12 10:40:30;;;;;;;1.97;1.40;;;;;;;;;;5105520;28;20793;-72
2023/05/12 10:42:59;;;;;;;2.90;1.70;;;;;;;;;;5108325;28;20710;-72
2023/05/12 10:45:26;;;;;;;3.40;1.70;;;;;;;;;;5108243;28;20970;-73
2023/05/12 10:47:53;;;;;;;2.17;1.33;;;;;;;;;;5107049;28;20436;-72
2023/05/12 10:50:27;;;;;;;2.40;1.57;;;;;;;;;;5107327;28;20457;-73
2023/05/12 10:52:54;;;;;;;1.60;1.00;;;;;;;;;;5108147;28;20432;-73
2023/05/12 10:55:32;;;;;;;2.40;1.47;;;;;;;;;;5108718;28;20451;-73
2023/05/12 10:58:04;;;;;;;2.10;1.17;;;;;;;;;;5107212;28;20459;-73
2023/05/12 11:00:33;;;;;;;1.87;1.10;;;;;;;;;;5112169;28;20447;-73
2023/05/12 11:03:03;;;;;;;3.47;2.00;;;;;;;;;;5109173;28;20546;-73
2023/05/12 11:05:34;;;;;;;2.20;1.70;;;;;;;;;;5111758;28;20455;-73
2023/05/12 11:08:01;;;;;;;2.17;1.60;;;;;;;;;;5109396;28;20455;-72
2023/05/12 11:10:29;;;;;;;2.43;1.37;;;;;;;;;;5108494;28;20455;-73
2023/05/12 11:12:58;;;;;;;2.80;1.43;;;16.00;94.40;;;;;;5107894;28;20477;-72
2023/05/12 11:15:26;;;;;;;3.80;2.53;;;16.10;99.90;;;;;;5110611;28;20447;-74
2023/05/12 11:17:53;;;;;;;2.53;1.63;;;16.00;1.00;;;;;;5111162;28;20447;-75
2023/05/12 11:20:23;;;;;;;3.27;1.70;;;15.90;1.00;;;;;;5110565;28;20447;-71
2023/05/12 11:22:51;;;;;;;2.77;1.90;;;15.90;1.00;;;;;;5111416;28;20784;-71
2023/05/12 11:25:18;;;;;;;2.70;1.40;;;15.90;1.00;;;;;;5111319;28;20440;-71
2023/05/12 11:27:48;;;;;;;2.33;1.50;;;16.00;1.00;;;;;;5110053;28;20529;-72
2023/05/12 11:30:18;;;;;;;2.57;1.80;;;15.90;1.00;;;;;;5109074;28;20460;-72
2023/05/12 11:32:45;;;;;;;2.30;1.50;;;15.90;1.00;;;;;;5113324;28;20459;-72
2023/05/12 11:35:13;;;;;;;2.60;1.63;;;15.80;1.00;;;;;;5114015;28;20448;-72
2023/05/12 11:37:42;;;;;;;3.10;1.23;;;15.80;90.90;;;;;;5100159;28;20455;-70
2023/05/12 11:40:14;;;;;;;2.60;1.33;;;15.80;55.10;;;;;;5112956;28;20517;-69
2023/05/12 11:42:44;;;;;;;2.13;1.50;;;15.70;98.00;;;;;;5104791;28;20861;-69
2023/05/12 11:45:21;;;;;;;2.07;1.23;;;15.70;1.00;;;;;;5113053;28;20444;-71
2023/05/12 11:47:48;;;;;;;2.07;1.40;;;15.70;1.00;;;;;;5112188;28;20439;-73
2023/05/12 11:50:21;;;;;;;2.27;1.17;;;15.60;99.90;;;;;;5109370;28;20443;-72
2023/05/12 11:52:48;;;;;;;2.63;1.40;;;15.60;1.00;;;;;;5112332;28;20443;-77
2023/05/12 11:55:21;;;;;;;1.53;1.00;;;15.80;1.00;;;;;;5113454;28;20448;-76
2023/05/12 11:57:56;;;;;;;2.53;1.33;;;15.70;1.00;;;;;;5112627;28;20432;-74
2023/05/12 12:00:32;;;;;;;2.23;1.40;;;15.70;1.00;;;;;;5111642;28;20440;-74
2023/05/12 12:03:12;;;;;;;2.00;1.30;;;15.80;1.00;;;;;;5108064;27;20872;-74
2023/05/12 12:05:40;;;;;;;1.70;1.10;;;15.80;1.00;;;;;;5109959;28;20444;-70
2023/05/12 12:08:08;;;;;;;1.70;1.10;;;15.80;32.20;;;;;;5110325;28;20865;-73
2023/05/12 12:10:36;;;;;;;2.10;1.30;;;15.90;1.00;;;;;;5109936;28;20439;-73
2023/05/12 12:13:03;;;;;;;1.67;1.17;;;15.90;1.00;;;;;;5110519;28;20459;-73
2023/05/12 12:15:32;;;;;;;1.83;1.10;;;15.80;1.00;;;;;;5110990;28;20939;-72
2023/05/12 12:17:59;;;;;;;1.50;0.80;;;15.90;99.90;;;;;;5109450;28;20468;-73
2023/05/12 12:20:25;;;;;;;1.80;1.13;;;16.00;99.90;;;;;;5108777;28;20448;-73
2023/05/12 12:22:53;;;;;;;2.03;1.27;;;16.20;97.40;;;;;;5110337;28;20483;-73
2023/05/12 12:25:20;;;;;;;2.60;1.40;;;16.40;1.00;;;;;;5109880;28;20459;-74
2023/05/12 12:27:47;;;;;;;2.37;1.40;;;16.60;1.00;;;;;;5116787;27;20961;-74
2023/05/12 12:30:15;;;;;;;2.60;1.57;;;16.80;1.00;;;;;;5112218;28;20521;-75
2023/05/12 12:32:44;;;;;;;3.10;1.73;;;17.00;99.90;;;;;;5111766;28;20451;-72
2023/05/12 12:35:12;;;;;;;2.37;1.30;;;17.00;1.00;;;;;;5111821;28;20440;-76
2023/05/12 12:37:39;;;;;;;2.30;1.07;;;17.20;64.50;;;;;;5112093;28;20443;-72
2023/05/12 12:40:08;;;;;;;3.40;1.90;;;17.40;1.00;;;;;;5112482;28;20463;-76
2023/05/12 12:42:35;;;;;;;1.87;1.17;;;17.30;1.00;;;;;;5117919;27;20475;-75
2023/05/12 12:45:03;;;;;;;2.73;1.70;;;17.50;99.90;;;;;;5112102;28;20454;-75
2023/05/12 12:47:30;;;;;;;1.70;1.20;;;17.70;99.90;;;;;;5111699;28;20448;-74
2023/05/12 12:49:58;;;;;;;3.47;1.50;;;18.10;99.90;;;;;;5110443;27;20616;-74
2023/05/12 12:52:25;;;;;;;2.43;1.43;;;18.10;1.00;;;;;;5112506;27;20939;-74
2023/05/12 12:54:52;;;;;;;1.80;0.90;;;17.90;1.00;;;;;;5112401;27;20462;-73
2023/05/12 12:57:20;;;;;;;2.00;1.30;;;18.10;1.00;;;;;;5112472;28;20813;-74
2023/05/12 12:59:47;;;;;;;1.77;1.10;;;18.10;1.00;;;;;;5111272;28;20448;-78
2023/05/12 13:02:14;;;;;;;2.17;1.40;;;18.10;1.00;;;;;;5112286;28;20792;-73
2023/05/12 13:04:41;;;;;;;1.87;1.20;;;18.00;1.00;;;;;;5099757;28;20935;-75
2023/05/12 13:07:09;;;;;;;2.27;1.00;;;18.10;99.90;;;;;;5112064;28;20452;-75
2023/05/12 13:09:36;;;;;;;1.60;1.07;;;18.10;99.90;;;;;;5111450;28;20482;-76